sensor_id;sensor_type;location;lat;lon;timestamp;P1;durP1;ratioP1;P2;durP2;ratioP2
17818;SDS011;9034;50.284;19.310;2023-08-21T00:00:40;12.23;;;11.00;;
17818;SDS011;9034;50.284;19.310;2023-08-21T00:01:42;11.75;;;10.57;;
17818;SDS011;9034;50.284;19.310;2023-08-21T00:02:45;12.02;;;10.82;;
17818;SDS011;9034;50.284;19.310;2023-08-21T00:03:47;12.20;;;11.00;;
17818;SDS011;9034;50.284;19.310;2023-08-21T00:04:50;14.38;;;11.00;;
17818;SDS011;9034;50.284;19.310;2023-08-21T00:05:52;14.43;;;13.02;;
17818;SDS011;9034;50.284;19.310;2023-08-21T00:06:55;12.30;;;11.10;;
17818;SDS011;9034;50.284;19.310;2023-08-21T00:07:56;13.68;;;11.73;;
17818;SDS011;9034;50.284;19.310;2023-08-21T00:09:00;13.93;;;11.93;;
17818;SDS011;9034;50.284;19.310;2023-08-21T00:10:02;13.82;;;12.43;;
17818;SDS011;9034;50.284;19.310;2023-08-21T00:11:05;13.23;;;11.88;;
17818;SDS011;9034;50.284;19.310;2023-08-21T00:12:06;17.90;;;12.15;;
17818;SDS011;9034;50.284;19.310;2023-08-21T00:13:09;12.02;;;10.80;;
17818;SDS011;9034;50.284;19.310;2023-08-21T00:14:11;12.75;;;11.45;;
17818;SDS011;9034;50.284;19.310;2023-08-21T00:15:14;13.43;;;10.20;;
17818;SDS011;9034;50.284;19.310;2023-08-21T00:16:18;12.13;;;10.93;;
17818;SDS011;9034;50.284;19.310;2023-08-21T00:17:21;10.00;;;9.05;;
17818;SDS011;9034;50.284;19.310;2023-08-21T00:18:22;10.55;;;9.52;;
17818;SDS011;9034;50.284;19.310;2023-08-21T00:19:25;10.77;;;9.77;;
17818;SDS011;9034;50.284;19.310;2023-08-21T00:20:27;12.70;;;10.65;;
17818;SDS011;9034;50.284;19.310;2023-08-21T00:21:30;14.82;;;12.75;;
17818;SDS011;9034;50.284;19.310;2023-08-21T00:22:32;15.10;;;13.27;;
17818;SDS011;9034;50.284;19.310;2023-08-21T00:23:35;15.63;;;13.13;;
17818;SDS011;9034;50.284;19.310;2023-08-21T00:24:37;16.63;;;14.18;;
17818;SDS011;9034;50.284;19.310;2023-08-21T00:25:39;14.90;;;13.38;;
17818;SDS011;9034;50.284;19.310;2023-08-21T00:26:41;14.00;;;12.60;;
17818;SDS011;9034;50.284;19.310;2023-08-21T00:27:44;14.35;;;12.88;;
17818;SDS011;9034;50.284;19.310;2023-08-21T00:28:46;14.30;;;12.80;;
17818;SDS011;9034;50.284;19.310;2023-08-21T00:29:49;13.13;;;11.77;;
17818;SDS011;9034;50.284;19.310;2023-08-21T00:30:51;13.70;;;12.30;;
17818;SDS011;9034;50.284;19.310;2023-08-21T00:31:55;14.38;;;12.98;;
17818;SDS011;9034;50.284;19.310;2023-08-21T00:32:57;14.07;;;12.57;;
17818;SDS011;9034;50.284;19.310;2023-08-21T00:34:00;13.65;;;12.23;;
17818;SDS011;9034;50.284;19.310;2023-08-21T00:35:02;13.98;;;12.10;;
17818;SDS011;9034;50.284;19.310;2023-08-21T00:36:06;12.43;;;11.13;;
17818;SDS011;9034;50.284;19.310;2023-08-21T00:37:08;12.43;;;11.23;;
17818;SDS011;9034;50.284;19.310;2023-08-21T00:38:10;14.30;;;11.95;;
17818;SDS011;9034;50.284;19.310;2023-08-21T00:39:13;12.23;;;10.93;;
17818;SDS011;9034;50.284;19.310;2023-08-21T00:40:15;14.02;;;12.00;;
17818;SDS011;9034;50.284;19.310;2023-08-21T00:41:18;12.70;;;11.40;;
17818;SDS011;9034;50.284;19.310;2023-08-21T00:42:20;13.75;;;11.52;;
17818;SDS011;9034;50.284;19.310;2023-08-21T00:43:23;11.07;;;10.00;;
17818;SDS011;9034;50.284;19.310;2023-08-21T00:44:25;12.88;;;11.57;;
17818;SDS011;9034;50.284;19.310;2023-08-21T00:45:27;13.45;;;11.85;;
17818;SDS011;9034;50.284;19.310;2023-08-21T00:46:30;13.85;;;12.43;;
17818;SDS011;9034;50.284;19.310;2023-08-21T00:47:34;13.90;;;12.45;;
17818;SDS011;9034;50.284;19.310;2023-08-21T00:48:36;13.82;;;11.82;;
17818;SDS011;9034;50.284;19.310;2023-08-21T00:49:39;14.35;;;11.93;;
17818;SDS011;9034;50.284;19.310;2023-08-21T00:50:41;15.10;;;13.25;;
17818;SDS011;9034;50.284;19.310;2023-08-21T00:51:44;14.98;;;13.38;;
17818;SDS011;9034;50.284;19.310;2023-08-21T00:52:47;13.07;;;11.77;;
17818;SDS011;9034;50.284;19.310;2023-08-21T00:53:50;12.75;;;11.25;;
17818;SDS011;9034;50.284;19.310;2023-08-21T00:54:53;12.60;;;11.30;;
17818;SDS011;9034;50.284;19.310;2023-08-21T00:55:56;13.05;;;11.80;;
17818;SDS011;9034;50.284;19.310;2023-08-21T00:56:58;13.73;;;12.27;;
17818;SDS011;9034;50.284;19.310;2023-08-21T00:58:01;12.40;;;10.95;;
17818;SDS011;9034;50.284;19.310;2023-08-21T00:59:04;14.30;;;12.90;;
17818;SDS011;9034;50.284;19.310;2023-08-21T01:00:07;14.60;;;12.00;;
17818;SDS011;9034;50.284;19.310;2023-08-21T01:01:12;13.65;;;12.10;;
17818;SDS011;9034;50.284;19.310;2023-08-21T01:02:16;13.02;;;11.55;;
17818;SDS011;9034;50.284;19.310;2023-08-21T01:03:20;12.88;;;11.52;;
17818;SDS011;9034;50.284;19.310;2023-08-21T01:04:23;12.13;;;10.82;;
17818;SDS011;9034;50.284;19.310;2023-08-21T01:05:25;13.43;;;11.95;;
17818;SDS011;9034;50.284;19.310;2023-08-21T01:06:31;13.85;;;12.30;;
17818;SDS011;9034;50.284;19.310;2023-08-21T01:07:42;15.32;;;12.48;;
17818;SDS011;9034;50.284;19.310;2023-08-21T01:08:50;14.75;;;12.60;;
17818;SDS011;9034;50.284;19.310;2023-08-21T01:09:58;15.52;;;12.15;;
17818;SDS011;9034;50.284;19.310;2023-08-21T01:11:06;13.10;;;11.27;;
17818;SDS011;9034;50.284;19.310;2023-08-21T01:12:12;12.40;;;10.80;;
17818;SDS011;9034;50.284;19.310;2023-08-21T01:13:28;12.70;;;11.38;;
17818;SDS011;9034;50.284;19.310;2023-08-21T01:14:39;12.18;;;10.98;;
17818;SDS011;9034;50.284;19.310;2023-08-21T01:15:45;11.80;;;10.70;;
17818;SDS011;9034;50.284;19.310;2023-08-21T01:16:48;11.95;;;10.70;;
17818;SDS011;9034;50.284;19.310;2023-08-21T01:17:52;9.88;;;8.75;;
17818;SDS011;9034;50.284;19.310;2023-08-21T01:18:58;11.40;;;9.07;;
17818;SDS011;9034;50.284;19.310;2023-08-21T01:20:01;9.00;;;8.10;;
17818;SDS011;9034;50.284;19.310;2023-08-21T01:21:05;8.60;;;7.80;;
17818;SDS011;9034;50.284;19.310;2023-08-21T01:22:06;13.55;;;12.20;;
17818;SDS011;9034;50.284;19.310;2023-08-21T01:23:09;12.73;;;11.43;;
17818;SDS011;9034;50.284;19.310;2023-08-21T01:24:13;14.93;;;12.85;;
17818;SDS011;9034;50.284;19.310;2023-08-21T01:25:16;12.30;;;11.10;;
17818;SDS011;9034;50.284;19.310;2023-08-21T01:26:18;12.05;;;10.85;;
17818;SDS011;9034;50.284;19.310;2023-08-21T01:27:21;12.10;;;10.85;;
17818;SDS011;9034;50.284;19.310;2023-08-21T01:30:06;12.68;;;10.85;;
17818;SDS011;9034;50.284;19.310;2023-08-21T01:31:11;11.43;;;10.32;;
17818;SDS011;9034;50.284;19.310;2023-08-21T01:32:18;10.20;;;9.10;;
17818;SDS011;9034;50.284;19.310;2023-08-21T01:33:24;10.55;;;9.57;;
17818;SDS011;9034;50.284;19.310;2023-08-21T01:34:27;11.05;;;9.88;;
17818;SDS011;9034;50.284;19.310;2023-08-21T01:35:31;10.77;;;9.68;;
17818;SDS011;9034;50.284;19.310;2023-08-21T01:36:35;12.10;;;10.55;;
17818;SDS011;9034;50.284;19.310;2023-08-21T01:37:38;11.23;;;9.95;;
17818;SDS011;9034;50.284;19.310;2023-08-21T01:38:40;13.10;;;10.88;;
17818;SDS011;9034;50.284;19.310;2023-08-21T01:39:47;13.20;;;10.63;;
17818;SDS011;9034;50.284;19.310;2023-08-21T01:40:49;12.00;;;10.90;;
17818;SDS011;9034;50.284;19.310;2023-08-21T01:41:51;10.75;;;9.75;;
17818;SDS011;9034;50.284;19.310;2023-08-21T01:42:55;12.38;;;10.63;;
17818;SDS011;9034;50.284;19.310;2023-08-21T01:43:57;11.82;;;10.43;;
17818;SDS011;9034;50.284;19.310;2023-08-21T01:45:00;21.02;;;8.70;;
17818;SDS011;9034;50.284;19.310;2023-08-21T01:46:02;44.10;;;10.00;;
17818;SDS011;9034;50.284;19.310;2023-08-21T01:47:06;9.13;;;8.25;;
17818;SDS011;9034;50.284;19.310;2023-08-21T01:48:10;9.57;;;7.38;;
17818;SDS011;9034;50.284;19.310;2023-08-21T01:49:13;8.88;;;7.97;;
17818;SDS011;9034;50.284;19.310;2023-08-21T01:50:15;9.55;;;8.65;;
17818;SDS011;9034;50.284;19.310;2023-08-21T01:51:18;11.07;;;9.95;;
17818;SDS011;9034;50.284;19.310;2023-08-21T01:52:20;11.75;;;10.55;;
17818;SDS011;9034;50.284;19.310;2023-08-21T01:53:23;11.82;;;10.73;;
17818;SDS011;9034;50.284;19.310;2023-08-21T01:54:25;12.80;;;11.48;;
17818;SDS011;9034;50.284;19.310;2023-08-21T01:55:29;13.80;;;12.30;;
17818;SDS011;9034;50.284;19.310;2023-08-21T01:56:34;15.57;;;12.73;;
17818;SDS011;9034;50.284;19.310;2023-08-21T01:57:37;16.63;;;12.38;;
17818;SDS011;9034;50.284;19.310;2023-08-21T01:58:39;14.23;;;12.73;;
17818;SDS011;9034;50.284;19.310;2023-08-21T01:59:42;14.68;;;11.82;;
17818;SDS011;9034;50.284;19.310;2023-08-21T02:00:45;14.07;;;12.70;;
17818;SDS011;9034;50.284;19.310;2023-08-21T02:01:48;13.60;;;12.15;;
17818;SDS011;9034;50.284;19.310;2023-08-21T02:02:50;11.18;;;10.02;;
17818;SDS011;9034;50.284;19.310;2023-08-21T02:03:53;10.48;;;9.38;;
17818;SDS011;9034;50.284;19.310;2023-08-21T02:04:55;9.85;;;8.85;;
17818;SDS011;9034;50.284;19.310;2023-08-21T02:05:57;10.63;;;9.63;;
17818;SDS011;9034;50.284;19.310;2023-08-21T02:07:00;13.75;;;10.85;;
17818;SDS011;9034;50.284;19.310;2023-08-21T02:08:02;10.32;;;9.32;;
17818;SDS011;9034;50.284;19.310;2023-08-21T02:09:05;10.35;;;9.25;;
17818;SDS011;9034;50.284;19.310;2023-08-21T02:10:09;13.10;;;10.00;;
17818;SDS011;9034;50.284;19.310;2023-08-21T02:11:14;10.60;;;9.60;;
17818;SDS011;9034;50.284;19.310;2023-08-21T02:12:16;12.23;;;10.93;;
17818;SDS011;9034;50.284;19.310;2023-08-21T02:13:20;14.30;;;11.43;;
17818;SDS011;9034;50.284;19.310;2023-08-21T02:14:22;18.20;;;10.50;;
17818;SDS011;9034;50.284;19.310;2023-08-21T02:15:25;10.75;;;9.38;;
17818;SDS011;9034;50.284;19.310;2023-08-21T02:16:27;9.82;;;8.82;;
17818;SDS011;9034;50.284;19.310;2023-08-21T02:17:30;10.90;;;9.80;;
17818;SDS011;9034;50.284;19.310;2023-08-21T02:18:33;11.30;;;10.20;;
17818;SDS011;9034;50.284;19.310;2023-08-21T02:19:36;11.15;;;10.00;;
17818;SDS011;9034;50.284;19.310;2023-08-21T02:20:38;14.00;;;10.80;;
17818;SDS011;9034;50.284;19.310;2023-08-21T02:21:40;12.90;;;11.18;;
17818;SDS011;9034;50.284;19.310;2023-08-21T02:22:42;11.55;;;10.45;;
17818;SDS011;9034;50.284;19.310;2023-08-21T02:23:45;12.25;;;10.93;;
17818;SDS011;9034;50.284;19.310;2023-08-21T02:24:47;15.07;;;12.68;;
17818;SDS011;9034;50.284;19.310;2023-08-21T02:25:49;14.40;;;12.50;;
17818;SDS011;9034;50.284;19.310;2023-08-21T02:26:53;18.13;;;14.68;;
17818;SDS011;9034;50.284;19.310;2023-08-21T02:27:57;16.08;;;14.32;;
17818;SDS011;9034;50.284;19.310;2023-08-21T02:28:59;26.33;;;17.15;;
17818;SDS011;9034;50.284;19.310;2023-08-21T02:30:01;21.35;;;16.55;;
17818;SDS011;9034;50.284;19.310;2023-08-21T02:31:05;19.02;;;14.27;;
17818;SDS011;9034;50.284;19.310;2023-08-21T02:32:11;17.30;;;15.13;;
17818;SDS011;9034;50.284;19.310;2023-08-21T02:33:14;17.17;;;15.38;;
17818;SDS011;9034;50.284;19.310;2023-08-21T02:34:17;17.95;;;15.35;;
17818;SDS011;9034;50.284;19.310;2023-08-21T02:35:20;18.20;;;15.48;;
17818;SDS011;9034;50.284;19.310;2023-08-21T02:36:24;20.88;;;15.27;;
17818;SDS011;9034;50.284;19.310;2023-08-21T02:37:27;20.52;;;14.95;;
17818;SDS011;9034;50.284;19.310;2023-08-21T02:38:29;23.15;;;16.98;;
17818;SDS011;9034;50.284;19.310;2023-08-21T02:39:32;21.55;;;16.75;;
17818;SDS011;9034;50.284;19.310;2023-08-21T02:40:34;23.23;;;17.42;;
17818;SDS011;9034;50.284;19.310;2023-08-21T02:41:37;20.77;;;14.70;;
17818;SDS011;9034;50.284;19.310;2023-08-21T02:42:41;15.50;;;13.38;;
17818;SDS011;9034;50.284;19.310;2023-08-21T02:43:43;12.40;;;11.10;;
17818;SDS011;9034;50.284;19.310;2023-08-21T02:44:45;12.95;;;10.50;;
17818;SDS011;9034;50.284;19.310;2023-08-21T02:45:48;14.35;;;10.77;;
17818;SDS011;9034;50.284;19.310;2023-08-21T02:46:50;14.10;;;10.88;;
17818;SDS011;9034;50.284;19.310;2023-08-21T02:47:53;13.35;;;10.68;;
17818;SDS011;9034;50.284;19.310;2023-08-21T02:48:55;19.38;;;10.90;;
17818;SDS011;9034;50.284;19.310;2023-08-21T02:49:58;20.15;;;10.98;;
17818;SDS011;9034;50.284;19.310;2023-08-21T02:51:00;13.38;;;11.15;;
17818;SDS011;9034;50.284;19.310;2023-08-21T02:52:06;41.50;;;15.20;;
17818;SDS011;9034;50.284;19.310;2023-08-21T02:53:11;11.15;;;9.32;;
17818;SDS011;9034;50.284;19.310;2023-08-21T02:54:14;11.52;;;10.38;;
17818;SDS011;9034;50.284;19.310;2023-08-21T02:55:16;12.82;;;11.48;;
17818;SDS011;9034;50.284;19.310;2023-08-21T02:56:19;13.35;;;11.07;;
17818;SDS011;9034;50.284;19.310;2023-08-21T02:57:21;15.10;;;12.30;;
17818;SDS011;9034;50.284;19.310;2023-08-21T02:58:25;18.65;;;12.18;;
17818;SDS011;9034;50.284;19.310;2023-08-21T02:59:27;15.57;;;11.88;;
17818;SDS011;9034;50.284;19.310;2023-08-21T03:00:30;14.35;;;12.85;;
17818;SDS011;9034;50.284;19.310;2023-08-21T03:01:32;15.00;;;12.68;;
17818;SDS011;9034;50.284;19.310;2023-08-21T03:02:36;15.95;;;12.73;;
17818;SDS011;9034;50.284;19.310;2023-08-21T03:03:39;14.48;;;12.95;;
17818;SDS011;9034;50.284;19.310;2023-08-21T03:04:42;14.80;;;11.32;;
17818;SDS011;9034;50.284;19.310;2023-08-21T03:05:44;31.80;;;13.63;;
17818;SDS011;9034;50.284;19.310;2023-08-21T03:06:46;18.00;;;14.75;;
17818;SDS011;9034;50.284;19.310;2023-08-21T03:07:50;31.25;;;14.40;;
17818;SDS011;9034;50.284;19.310;2023-08-21T03:08:53;19.83;;;15.77;;
17818;SDS011;9034;50.284;19.310;2023-08-21T03:09:54;16.05;;;14.15;;
17818;SDS011;9034;50.284;19.310;2023-08-21T03:10:57;16.40;;;12.32;;
17818;SDS011;9034;50.284;19.310;2023-08-21T03:11:59;16.27;;;13.48;;
17818;SDS011;9034;50.284;19.310;2023-08-21T03:13:02;18.50;;;13.80;;
17818;SDS011;9034;50.284;19.310;2023-08-21T03:14:06;15.07;;;12.95;;
17818;SDS011;9034;50.284;19.310;2023-08-21T03:15:11;14.00;;;12.50;;
17818;SDS011;9034;50.284;19.310;2023-08-21T03:16:13;15.70;;;13.75;;
17818;SDS011;9034;50.284;19.310;2023-08-21T03:17:16;17.20;;;13.43;;
17818;SDS011;9034;50.284;19.310;2023-08-21T03:18:18;14.43;;;12.82;;
17818;SDS011;9034;50.284;19.310;2023-08-21T03:19:21;14.85;;;12.88;;
17818;SDS011;9034;50.284;19.310;2023-08-21T03:20:23;15.88;;;13.27;;
17818;SDS011;9034;50.284;19.310;2023-08-21T03:21:26;13.68;;;11.95;;
17818;SDS011;9034;50.284;19.310;2023-08-21T03:22:29;13.43;;;12.02;;
17818;SDS011;9034;50.284;19.310;2023-08-21T03:23:33;12.95;;;11.63;;
17818;SDS011;9034;50.284;19.310;2023-08-21T03:24:35;16.27;;;12.75;;
17818;SDS011;9034;50.284;19.310;2023-08-21T03:25:37;12.90;;;11.40;;
17818;SDS011;9034;50.284;19.310;2023-08-21T03:26:39;19.38;;;15.05;;
17818;SDS011;9034;50.284;19.310;2023-08-21T03:27:42;16.27;;;14.48;;
17818;SDS011;9034;50.284;19.310;2023-08-21T03:28:46;17.35;;;15.27;;
17818;SDS011;9034;50.284;19.310;2023-08-21T03:29:50;19.27;;;15.00;;
17818;SDS011;9034;50.284;19.310;2023-08-21T03:30:52;17.70;;;15.30;;
17818;SDS011;9034;50.284;19.310;2023-08-21T03:31:55;17.60;;;15.70;;
17818;SDS011;9034;50.284;19.310;2023-08-21T03:32:59;15.70;;;13.60;;
17818;SDS011;9034;50.284;19.310;2023-08-21T03:34:03;14.23;;;12.77;;
17818;SDS011;9034;50.284;19.310;2023-08-21T03:35:06;13.75;;;12.38;;
17818;SDS011;9034;50.284;19.310;2023-08-21T03:36:10;13.00;;;11.70;;
17818;SDS011;9034;50.284;19.310;2023-08-21T03:37:12;14.35;;;12.77;;
17818;SDS011;9034;50.284;19.310;2023-08-21T03:38:15;13.70;;;12.30;;
17818;SDS011;9034;50.284;19.310;2023-08-21T03:39:19;16.25;;;12.52;;
17818;SDS011;9034;50.284;19.310;2023-08-21T03:40:22;13.98;;;12.10;;
17818;SDS011;9034;50.284;19.310;2023-08-21T03:41:26;13.95;;;12.45;;
17818;SDS011;9034;50.284;19.310;2023-08-21T03:42:28;14.50;;;13.00;;
17818;SDS011;9034;50.284;19.310;2023-08-21T03:43:31;17.08;;;13.05;;
17818;SDS011;9034;50.284;19.310;2023-08-21T03:44:33;18.90;;;14.80;;
17818;SDS011;9034;50.284;19.310;2023-08-21T03:45:37;16.10;;;13.88;;
17818;SDS011;9034;50.284;19.310;2023-08-21T03:46:40;15.52;;;13.15;;
17818;SDS011;9034;50.284;19.310;2023-08-21T03:47:44;16.15;;;13.85;;
17818;SDS011;9034;50.284;19.310;2023-08-21T03:48:51;14.55;;;13.00;;
17818;SDS011;9034;50.284;19.310;2023-08-21T03:49:53;14.80;;;13.18;;
17818;SDS011;9034;50.284;19.310;2023-08-21T03:50:58;14.82;;;13.43;;
17818;SDS011;9034;50.284;19.310;2023-08-21T03:52:00;14.52;;;13.02;;
17818;SDS011;9034;50.284;19.310;2023-08-21T03:53:03;14.63;;;13.10;;
17818;SDS011;9034;50.284;19.310;2023-08-21T03:54:05;17.58;;;12.90;;
17818;SDS011;9034;50.284;19.310;2023-08-21T03:55:08;15.77;;;13.10;;
17818;SDS011;9034;50.284;19.310;2023-08-21T03:56:10;15.32;;;13.82;;
17818;SDS011;9034;50.284;19.310;2023-08-21T03:57:12;18.02;;;14.05;;
17818;SDS011;9034;50.284;19.310;2023-08-21T03:58:14;15.95;;;12.85;;
17818;SDS011;9034;50.284;19.310;2023-08-21T03:59:16;14.95;;;13.40;;
17818;SDS011;9034;50.284;19.310;2023-08-21T04:00:19;14.05;;;12.65;;
17818;SDS011;9034;50.284;19.310;2023-08-21T04:01:23;14.68;;;12.98;;
17818;SDS011;9034;50.284;19.310;2023-08-21T04:02:26;16.92;;;13.77;;
17818;SDS011;9034;50.284;19.310;2023-08-21T04:03:28;15.45;;;13.40;;
17818;SDS011;9034;50.284;19.310;2023-08-21T04:04:31;17.13;;;14.90;;
17818;SDS011;9034;50.284;19.310;2023-08-21T04:05:33;18.35;;;13.85;;
17818;SDS011;9034;50.284;19.310;2023-08-21T04:06:35;16.50;;;14.32;;
17818;SDS011;9034;50.284;19.310;2023-08-21T04:07:37;14.30;;;12.85;;
17818;SDS011;9034;50.284;19.310;2023-08-21T04:08:42;15.77;;;13.52;;
17818;SDS011;9034;50.284;19.310;2023-08-21T04:09:44;15.80;;;13.40;;
17818;SDS011;9034;50.284;19.310;2023-08-21T04:10:47;15.20;;;13.48;;
17818;SDS011;9034;50.284;19.310;2023-08-21T04:11:49;14.82;;;13.23;;
17818;SDS011;9034;50.284;19.310;2023-08-21T04:12:51;13.77;;;12.38;;
17818;SDS011;9034;50.284;19.310;2023-08-21T04:13:53;15.93;;;13.38;;
17818;SDS011;9034;50.284;19.310;2023-08-21T04:14:56;14.15;;;12.75;;
17818;SDS011;9034;50.284;19.310;2023-08-21T04:15:58;14.38;;;12.88;;
17818;SDS011;9034;50.284;19.310;2023-08-21T04:17:03;13.52;;;12.13;;
17818;SDS011;9034;50.284;19.310;2023-08-21T04:18:05;15.95;;;13.00;;
17818;SDS011;9034;50.284;19.310;2023-08-21T04:19:09;14.77;;;13.27;;
17818;SDS011;9034;50.284;19.310;2023-08-21T04:20:11;16.85;;;13.52;;
17818;SDS011;9034;50.284;19.310;2023-08-21T04:21:14;15.05;;;13.43;;
17818;SDS011;9034;50.284;19.310;2023-08-21T04:22:16;15.10;;;12.23;;
17818;SDS011;9034;50.284;19.310;2023-08-21T04:23:20;16.58;;;14.75;;
17818;SDS011;9034;50.284;19.310;2023-08-21T04:24:22;17.48;;;14.80;;
17818;SDS011;9034;50.284;19.310;2023-08-21T04:25:24;17.77;;;14.98;;
17818;SDS011;9034;50.284;19.310;2023-08-21T04:26:26;19.70;;;14.75;;
17818;SDS011;9034;50.284;19.310;2023-08-21T04:27:29;17.98;;;14.80;;
17818;SDS011;9034;50.284;19.310;2023-08-21T04:28:32;18.05;;;14.32;;
17818;SDS011;9034;50.284;19.310;2023-08-21T04:29:37;18.42;;;15.82;;
17818;SDS011;9034;50.284;19.310;2023-08-21T04:30:41;16.77;;;14.77;;
17818;SDS011;9034;50.284;19.310;2023-08-21T04:31:44;16.10;;;14.52;;
17818;SDS011;9034;50.284;19.310;2023-08-21T04:32:47;14.88;;;13.38;;
17818;SDS011;9034;50.284;19.310;2023-08-21T04:33:50;14.85;;;12.88;;
17818;SDS011;9034;50.284;19.310;2023-08-21T04:34:52;15.13;;;13.50;;
17818;SDS011;9034;50.284;19.310;2023-08-21T04:35:55;14.88;;;13.35;;
17818;SDS011;9034;50.284;19.310;2023-08-21T04:36:59;15.30;;;13.68;;
17818;SDS011;9034;50.284;19.310;2023-08-21T04:38:02;15.95;;;14.15;;
17818;SDS011;9034;50.284;19.310;2023-08-21T04:39:05;17.42;;;14.65;;
17818;SDS011;9034;50.284;19.310;2023-08-21T04:40:08;17.80;;;15.07;;
17818;SDS011;9034;50.284;19.310;2023-08-21T04:41:13;19.77;;;14.63;;
17818;SDS011;9034;50.284;19.310;2023-08-21T04:42:18;18.25;;;14.93;;
17818;SDS011;9034;50.284;19.310;2023-08-21T04:43:21;17.95;;;16.02;;
17818;SDS011;9034;50.284;19.310;2023-08-21T04:44:24;18.25;;;15.35;;
17818;SDS011;9034;50.284;19.310;2023-08-21T04:45:27;18.73;;;15.30;;
17818;SDS011;9034;50.284;19.310;2023-08-21T04:46:29;19.95;;;14.70;;
17818;SDS011;9034;50.284;19.310;2023-08-21T04:47:32;18.83;;;15.32;;
17818;SDS011;9034;50.284;19.310;2023-08-21T04:48:35;17.55;;;15.18;;
17818;SDS011;9034;50.284;19.310;2023-08-21T04:49:38;17.17;;;15.38;;
17818;SDS011;9034;50.284;19.310;2023-08-21T04:50:40;19.15;;;15.55;;
17818;SDS011;9034;50.284;19.310;2023-08-21T04:51:44;22.70;;;15.93;;
17818;SDS011;9034;50.284;19.310;2023-08-21T04:52:47;18.55;;;16.15;;
17818;SDS011;9034;50.284;19.310;2023-08-21T04:53:51;19.92;;;16.30;;
17818;SDS011;9034;50.284;19.310;2023-08-21T04:54:55;18.75;;;16.60;;
17818;SDS011;9034;50.284;19.310;2023-08-21T04:55:58;22.77;;;17.20;;
17818;SDS011;9034;50.284;19.310;2023-08-21T04:57:01;22.02;;;16.75;;
17818;SDS011;9034;50.284;19.310;2023-08-21T04:58:04;20.75;;;17.67;;
17818;SDS011;9034;50.284;19.310;2023-08-21T04:59:06;21.10;;;17.45;;
17818;SDS011;9034;50.284;19.310;2023-08-21T05:00:09;19.73;;;16.60;;
17818;SDS011;9034;50.284;19.310;2023-08-21T05:01:14;22.15;;;17.70;;
17818;SDS011;9034;50.284;19.310;2023-08-21T05:02:22;21.17;;;17.10;;
17818;SDS011;9034;50.284;19.310;2023-08-21T05:03:26;18.83;;;16.58;;
17818;SDS011;9034;50.284;19.310;2023-08-21T05:04:30;19.60;;;16.63;;
17818;SDS011;9034;50.284;19.310;2023-08-21T05:05:32;20.13;;;17.45;;
17818;SDS011;9034;50.284;19.310;2023-08-21T05:06:35;20.70;;;16.27;;
17818;SDS011;9034;50.284;19.310;2023-08-21T05:07:37;19.73;;;16.52;;
17818;SDS011;9034;50.284;19.310;2023-08-21T05:08:40;21.70;;;17.27;;
17818;SDS011;9034;50.284;19.310;2023-08-21T05:09:43;20.45;;;17.65;;
17818;SDS011;9034;50.284;19.310;2023-08-21T05:10:47;21.27;;;17.77;;
17818;SDS011;9034;50.284;19.310;2023-08-21T05:11:50;19.60;;;17.52;;
17818;SDS011;9034;50.284;19.310;2023-08-21T05:12:53;22.05;;;18.77;;
17818;SDS011;9034;50.284;19.310;2023-08-21T05:13:55;23.02;;;18.17;;
17818;SDS011;9034;50.284;19.310;2023-08-21T05:14:59;19.52;;;17.30;;
17818;SDS011;9034;50.284;19.310;2023-08-21T05:16:03;22.90;;;19.35;;
17818;SDS011;9034;50.284;19.310;2023-08-21T05:17:10;22.67;;;18.67;;
17818;SDS011;9034;50.284;19.310;2023-08-21T05:18:12;27.23;;;19.23;;
17818;SDS011;9034;50.284;19.310;2023-08-21T05:19:15;26.40;;;20.08;;
17818;SDS011;9034;50.284;19.310;2023-08-21T05:20:18;29.07;;;19.73;;
17818;SDS011;9034;50.284;19.310;2023-08-21T05:21:22;24.53;;;18.57;;
17818;SDS011;9034;50.284;19.310;2023-08-21T05:22:24;25.20;;;19.47;;
17818;SDS011;9034;50.284;19.310;2023-08-21T05:23:27;24.97;;;19.43;;
17818;SDS011;9034;50.284;19.310;2023-08-21T05:24:34;21.77;;;18.47;;
17818;SDS011;9034;50.284;19.310;2023-08-21T05:25:39;20.00;;;17.83;;
17818;SDS011;9034;50.284;19.310;2023-08-21T05:26:42;20.67;;;17.43;;
17818;SDS011;9034;50.284;19.310;2023-08-21T05:27:48;20.47;;;18.17;;
17818;SDS011;9034;50.284;19.310;2023-08-21T05:28:50;19.97;;;17.93;;
17818;SDS011;9034;50.284;19.310;2023-08-21T05:29:52;22.05;;;17.45;;
17818;SDS011;9034;50.284;19.310;2023-08-21T05:30:54;19.33;;;17.00;;
17818;SDS011;9034;50.284;19.310;2023-08-21T05:31:57;18.37;;;16.50;;
17818;SDS011;9034;50.284;19.310;2023-08-21T05:32:59;20.00;;;16.53;;
17818;SDS011;9034;50.284;19.310;2023-08-21T05:34:03;19.20;;;17.00;;
17818;SDS011;9034;50.284;19.310;2023-08-21T05:35:05;18.50;;;16.43;;
17818;SDS011;9034;50.284;19.310;2023-08-21T05:36:11;20.93;;;16.80;;
17818;SDS011;9034;50.284;19.310;2023-08-21T05:37:13;16.83;;;15.03;;
17818;SDS011;9034;50.284;19.310;2023-08-21T05:38:16;16.90;;;15.07;;
17818;SDS011;9034;50.284;19.310;2023-08-21T05:39:18;18.27;;;14.83;;
17818;SDS011;9034;50.284;19.310;2023-08-21T05:40:23;18.13;;;15.10;;
17818;SDS011;9034;50.284;19.310;2023-08-21T05:41:25;18.80;;;14.10;;
17818;SDS011;9034;50.284;19.310;2023-08-21T05:42:28;20.43;;;14.83;;
17818;SDS011;9034;50.284;19.310;2023-08-21T05:43:30;19.20;;;14.37;;
17818;SDS011;9034;50.284;19.310;2023-08-21T05:44:33;16.13;;;14.53;;
17818;SDS011;9034;50.284;19.310;2023-08-21T05:45:35;15.40;;;13.80;;
17818;SDS011;9034;50.284;19.310;2023-08-21T05:46:39;18.03;;;14.80;;
17818;SDS011;9034;50.284;19.310;2023-08-21T05:47:41;23.13;;;14.87;;
17818;SDS011;9034;50.284;19.310;2023-08-21T05:48:44;18.40;;;13.70;;
17818;SDS011;9034;50.284;19.310;2023-08-21T05:49:46;20.47;;;13.83;;
17818;SDS011;9034;50.284;19.310;2023-08-21T05:50:50;21.87;;;14.93;;
17818;SDS011;9034;50.284;19.310;2023-08-21T05:51:53;15.03;;;13.23;;
17818;SDS011;9034;50.284;19.310;2023-08-21T05:52:58;16.13;;;13.40;;
17818;SDS011;9034;50.284;19.310;2023-08-21T05:54:00;13.87;;;12.40;;
17818;SDS011;9034;50.284;19.310;2023-08-21T05:55:03;16.07;;;12.63;;
17818;SDS011;9034;50.284;19.310;2023-08-21T05:56:06;14.20;;;12.70;;
17818;SDS011;9034;50.284;19.310;2023-08-21T05:57:09;15.20;;;13.23;;
17818;SDS011;9034;50.284;19.310;2023-08-21T05:58:11;14.53;;;12.43;;
17818;SDS011;9034;50.284;19.310;2023-08-21T05:59:23;14.30;;;12.27;;
17818;SDS011;9034;50.284;19.310;2023-08-21T06:00:28;13.90;;;12.50;;
17818;SDS011;9034;50.284;19.310;2023-08-21T06:01:34;15.50;;;12.30;;
17818;SDS011;9034;50.284;19.310;2023-08-21T06:02:36;15.47;;;12.70;;
17818;SDS011;9034;50.284;19.310;2023-08-21T06:03:39;19.00;;;13.17;;
17818;SDS011;9034;50.284;19.310;2023-08-21T06:04:58;14.23;;;12.73;;
17818;SDS011;9034;50.284;19.310;2023-08-21T06:06:01;14.30;;;12.80;;
17818;SDS011;9034;50.284;19.310;2023-08-21T06:07:05;13.40;;;12.03;;
17818;SDS011;9034;50.284;19.310;2023-08-21T06:08:08;13.90;;;12.60;;
17818;SDS011;9034;50.284;19.310;2023-08-21T06:09:10;17.43;;;13.00;;
17818;SDS011;9034;50.284;19.310;2023-08-21T06:10:13;14.70;;;12.63;;
17818;SDS011;9034;50.284;19.310;2023-08-21T06:11:16;14.87;;;11.90;;
17818;SDS011;9034;50.284;19.310;2023-08-21T06:12:19;13.37;;;11.83;;